URKA

Anapa Airport

Anapa, Russian Federation
TAF URKA 181652Z 1818/1918 18008G14MPS 9999 SCT030 TEMPO 1915/1918 25006G12MPS 3100 -SHRA BKN011 BKN020CB
Issued Valid From Valid To
Jan-18 @ 16:52 UTC
(9 hours ago)
Jan-18 @ 18:00 UTC
(8 hours ago)
Jan-19 @ 18:00 UTC
(in 16 hours)
Jan-18 @ 18:00 to Jan-19 @ 18:00
TAF URKA 181652Z 1818/1918 18008G14MPS 9999 SCT030
Wind Visibility Clouds
180° at 16 knots
 Gusting to 27 knots
10,000+ meters
  • Scattered at 3,000' AGL
Temporary Jan-19 @ 15:00 to Jan-19 @ 18:00
TEMPO 1915/1918 25006G12MPS 3100 -SHRA BKN011 BKN020CB
Wind Visibility Clouds Conditions
250° at 12 knots
 Gusting to 23 knots
3,106 meters
  • Broken at 1,100' AGL
  • Broken at 2,000' AGL
  • Light Rain
TAF URKA 181652Z 1818/1918 18008G14MPS 9999 SCT030 TEMPO 1915/1918 25006G12MPS 3100 -SHRA BKN011 BKN020CB
Issued Jan-18 @ 16:52 UTC
(9 hours ago)
Valid From Jan-18 @ 18:00 UTC
(8 hours ago)
Valid To Jan-19 @ 18:00 UTC
(in 16 hours)
Jan-18 @ 18:00 - Jan-19 @ 18:00
Wind Visibility
180° at 16 knots
 Gusting to 27 knots
10,000+ meters
Clouds
  • Scattered at 3,000' AGL
Temporary Jan-19 @ 15:00 - Jan-19 @ 18:00
Wind Visibility
250° at 12 knots
 Gusting to 23 knots
3,106 meters
Clouds
  • Broken at 1,100' AGL
  • Broken at 2,000' AGL
Conditions
  • Light Rain